createdAt,value
2022-09-14T00:01:28.965Z,2.60
2022-09-14T00:04:05.014Z,2.00
2022-09-14T00:06:52.887Z,2.70
2022-09-14T00:09:29.973Z,1.67
2022-09-14T00:12:17.892Z,2.33
2022-09-14T00:14:58.957Z,2.00
2022-09-14T00:17:38.885Z,1.88
2022-09-14T00:20:19.983Z,1.95
2022-09-14T00:22:59.881Z,1.75
2022-09-14T00:25:47.891Z,2.50
2022-09-14T00:28:27.887Z,1.63
2022-09-14T00:31:10.982Z,2.33
2022-09-14T00:33:53.897Z,2.28
2022-09-14T00:36:42.898Z,2.03
2022-09-14T00:39:18.120Z,2.33
2022-09-14T00:42:05.892Z,1.55
2022-09-14T00:44:39.824Z,1.90
2022-09-14T00:47:27.897Z,1.55
2022-09-14T00:50:03.345Z,2.58
2022-09-14T00:52:51.896Z,1.90
2022-09-14T00:55:26.132Z,2.10
2022-09-14T00:58:13.904Z,1.90
2022-09-14T01:00:48.193Z,2.13
2022-09-14T01:03:35.910Z,1.92
2022-09-14T01:06:16.893Z,2.17
2022-09-14T01:09:11.956Z,2.30
2022-09-14T01:12:05.914Z,2.40
2022-09-14T01:14:52.893Z,1.52
2022-09-14T01:17:45.928Z,1.33
2022-09-14T01:20:27.974Z,1.60
2022-09-14T01:23:20.921Z,1.73
2022-09-14T01:26:14.073Z,1.95
2022-09-14T01:29:15.888Z,1.52
2022-09-14T01:32:08.895Z,1.52
2022-09-14T01:35:13.033Z,1.20
2022-09-14T01:38:05.903Z,1.30
2022-09-14T01:40:50.017Z,1.77
2022-09-14T01:43:29.899Z,1.27
2022-09-14T01:46:14.038Z,1.83
2022-09-14T01:48:55.884Z,2.50
2022-09-14T01:51:42.976Z,1.73
2022-09-14T01:54:36.889Z,1.67
2022-09-14T01:57:47.912Z,1.77
2022-09-14T02:00:22.666Z,2.28
2022-09-14T02:03:12.922Z,1.38
2022-09-14T02:05:46.825Z,1.65
2022-09-14T02:08:34.896Z,1.20
2022-09-14T02:11:08.940Z,2.65
2022-09-14T02:13:56.890Z,1.25
2022-09-14T02:16:31.042Z,2.22
2022-09-14T02:19:23.575Z,1.58
2022-09-14T02:21:57.846Z,1.45
2022-09-14T02:24:45.905Z,1.65
2022-09-14T02:27:19.850Z,1.60
2022-09-14T02:30:07.921Z,1.80
2022-09-14T02:32:54.927Z,1.25
2022-09-14T02:35:36.027Z,1.85
2022-09-14T02:38:17.899Z,1.52
2022-09-14T02:41:29.004Z,2.50
2022-09-14T02:44:38.955Z,2.20
2022-09-14T02:47:26.967Z,1.83
2022-09-14T02:50:19.925Z,1.67
2022-09-14T02:53:00.967Z,1.48
2022-09-14T02:55:42.907Z,1.48
2022-09-14T02:58:24.020Z,2.50
2022-09-14T03:01:04.019Z,1.95
2022-09-14T03:03:44.968Z,1.35
2022-09-14T03:06:32.908Z,2.55
2022-09-14T03:09:06.987Z,1.60
2022-09-14T03:11:53.908Z,1.63
2022-09-14T03:14:41.943Z,1.45
2022-09-14T03:17:15.849Z,1.17
2022-09-14T03:20:03.921Z,1.95
2022-09-14T03:22:37.839Z,2.15
2022-09-14T03:25:25.917Z,1.88
2022-09-14T03:28:00.479Z,2.15
2022-09-14T03:30:47.934Z,2.20
2022-09-14T03:33:21.845Z,2.38
2022-09-14T03:36:09.927Z,2.08
2022-09-14T03:38:48.548Z,1.50
2022-09-14T03:41:35.928Z,2.38
2022-09-14T03:44:10.906Z,2.20
2022-09-14T03:46:51.983Z,2.42
2022-09-14T03:49:26.014Z,1.45
2022-09-14T03:52:05.896Z,2.10
2022-09-14T03:54:54.922Z,2.20
2022-09-14T03:57:34.924Z,1.48
2022-09-14T04:00:16.006Z,2.67
2022-09-14T04:02:55.960Z,2.03
2022-09-14T04:05:36.978Z,1.98
2022-09-14T04:08:16.939Z,1.63
2022-09-14T04:10:57.992Z,2.50
2022-09-14T04:13:37.933Z,1.45
2022-09-14T04:16:27.036Z,2.65
2022-09-14T04:19:00.902Z,1.90
2022-09-14T04:21:48.920Z,1.50
2022-09-14T04:24:30.581Z,1.27
2022-09-14T04:27:12.010Z,1.83
2022-09-14T04:29:51.941Z,1.77
2022-09-14T04:32:39.941Z,1.75
2022-09-14T04:35:19.954Z,1.63
2022-09-14T04:38:02.013Z,1.75
2022-09-14T04:40:42.936Z,1.23
2022-09-14T04:43:24.228Z,2.35
2022-09-14T04:46:08.986Z,1.90
2022-09-14T04:48:50.291Z,1.42
2022-09-14T04:51:31.941Z,2.97
2022-09-14T04:54:13.082Z,1.60
2022-09-14T04:56:52.930Z,2.08
2022-09-14T04:59:40.923Z,1.20
2022-09-14T05:02:21.004Z,2.90
2022-09-14T05:05:08.936Z,2.00
2022-09-14T05:08:02.930Z,1.48
2022-09-14T05:10:49.918Z,1.58
2022-09-14T05:13:24.003Z,1.10
2022-09-14T05:16:18.008Z,1.42
2022-09-14T05:18:52.063Z,1.30
2022-09-14T05:21:40.935Z,1.40
2022-09-14T05:24:19.058Z,1.85
2022-09-14T05:27:05.938Z,1.75
2022-09-14T05:29:46.923Z,1.52
2022-09-14T05:32:33.937Z,1.50
2022-09-14T05:35:08.099Z,1.98
2022-09-14T05:37:54.954Z,1.95
2022-09-14T05:40:29.066Z,2.08
2022-09-14T05:43:16.928Z,1.88
2022-09-14T05:45:57.968Z,1.80
2022-09-14T05:48:52.947Z,2.13
2022-09-14T05:51:39.952Z,1.10
2022-09-14T05:54:13.997Z,1.35
2022-09-14T05:57:00.974Z,1.67
2022-09-14T05:59:35.021Z,2.00
2022-09-14T06:02:22.017Z,2.65
2022-09-14T06:04:56.066Z,1.95
2022-09-14T06:07:42.955Z,1.10
2022-09-14T06:10:17.013Z,1.42
2022-09-14T06:13:06.954Z,1.35
2022-09-14T06:18:44.933Z,2.92
2022-09-14T06:21:36.948Z,1.73
2022-09-14T06:24:12.421Z,1.95
2022-09-14T06:26:58.946Z,1.63
2022-09-14T06:29:33.063Z,1.60
2022-09-14T06:32:19.953Z,2.20
2022-09-14T06:34:54.039Z,1.30
2022-09-14T06:37:40.967Z,0.73
2022-09-14T06:40:15.056Z,1.50
2022-09-14T06:43:03.957Z,1.52
2022-09-14T06:45:38.037Z,0.93
2022-09-14T06:48:24.957Z,0.95
2022-09-14T06:51:05.938Z,1.42
2022-09-14T06:54:00.962Z,1.60
2022-09-14T06:56:49.955Z,2.15
2022-09-14T06:59:25.027Z,2.00
2022-09-14T07:02:12.001Z,1.23
2022-09-14T07:04:46.034Z,2.00
2022-09-14T07:07:33.958Z,1.73
2022-09-14T07:10:08.018Z,1.40
2022-09-14T07:12:54.949Z,1.35
2022-09-14T07:15:42.987Z,1.85
2022-09-14T07:18:17.203Z,0.63
2022-09-14T07:21:05.757Z,2.30
2022-09-14T07:23:47.952Z,1.23
2022-09-14T07:26:45.936Z,1.45
2022-09-14T07:29:20.418Z,1.30
2022-09-14T07:32:07.947Z,1.58
2022-09-14T07:34:41.884Z,0.95
2022-09-14T07:37:29.974Z,1.33
2022-09-14T07:40:24.029Z,1.00
2022-09-14T07:43:10.959Z,1.13
2022-09-14T07:45:53.007Z,2.88
2022-09-14T07:48:47.981Z,2.50
2022-09-14T07:51:35.952Z,1.73
2022-09-14T07:54:11.961Z,1.83
2022-09-14T07:56:58.989Z,1.73
2022-09-14T07:59:40.212Z,1.50
2022-09-14T08:02:20.010Z,1.55
2022-09-14T08:05:01.043Z,1.60
2022-09-14T08:07:40.956Z,1.40
2022-09-14T08:10:22.011Z,1.98
2022-09-14T08:13:02.952Z,2.13
2022-09-14T08:15:44.029Z,1.83
2022-09-14T08:18:24.977Z,1.50
2022-09-14T08:21:11.199Z,1.83
2022-09-14T08:23:51.965Z,1.27
2022-09-14T08:26:34.039Z,1.38
2022-09-14T08:29:14.974Z,1.55
2022-09-14T08:32:03.012Z,1.48
2022-09-14T08:34:36.897Z,1.52
2022-09-14T08:37:24.955Z,1.13
2022-09-14T08:39:58.924Z,1.80
2022-09-14T08:42:47.968Z,1.30
2022-09-14T08:45:24.002Z,2.10
2022-09-14T08:48:11.972Z,1.73
2022-09-14T08:50:45.920Z,1.60
2022-09-14T08:53:38.982Z,1.38
2022-09-14T08:56:31.978Z,0.88
2022-09-14T08:59:22.077Z,1.20
2022-09-14T09:02:10.976Z,1.23
2022-09-14T09:05:16.982Z,0.80
2022-09-14T09:08:03.158Z,0.70
2022-09-14T09:10:52.990Z,2.15
2022-09-14T09:13:29.627Z,0.57
2022-09-14T09:16:19.048Z,0.75
2022-09-14T09:19:08.995Z,0.70
2022-09-14T09:21:52.151Z,0.80
2022-09-14T09:24:44.955Z,0.95
2022-09-14T09:27:27.758Z,1.20
2022-09-14T09:30:08.977Z,1.00
2022-09-14T09:32:50.043Z,1.10
2022-09-14T09:35:31.979Z,1.45
2022-09-14T09:38:24.846Z,1.80
2022-09-14T09:41:19.981Z,0.80
2022-09-14T09:44:10.525Z,0.75
2022-09-14T09:47:08.050Z,0.80
2022-09-14T09:49:53.980Z,1.00
2022-09-14T09:52:42.061Z,0.95
2022-09-14T09:55:37.971Z,0.77
2022-09-14T09:58:35.008Z,0.60
2022-09-14T10:04:12.995Z,0.93
2022-09-14T10:09:34.989Z,1.88
2022-09-14T10:12:22.048Z,1.30
2022-09-14T10:15:14.987Z,2.78
2022-09-14T10:18:16.071Z,2.97
2022-09-14T10:20:58.997Z,2.38
2022-09-14T10:23:41.106Z,1.60
2022-09-14T10:26:20.991Z,1.27
2022-09-14T10:29:08.995Z,2.50
2022-09-14T10:31:44.042Z,2.83
2022-09-14T10:34:33.007Z,1.25
2022-09-14T10:37:32.085Z,1.27
2022-09-14T10:40:23.125Z,1.65
2022-09-14T10:43:02.928Z,1.40
2022-09-14T10:45:55.019Z,1.27
2022-09-14T10:48:52.017Z,1.25
2022-09-14T10:51:45.075Z,1.35
2022-09-14T10:54:59.006Z,0.90
2022-09-14T10:57:49.077Z,1.25
2022-09-14T11:00:30.013Z,1.50
2022-09-14T11:03:29.074Z,1.30
2022-09-14T11:06:23.987Z,1.05
2022-09-14T11:09:10.102Z,1.23
2022-09-14T11:12:10.010Z,1.60
2022-09-14T11:15:21.999Z,1.10
2022-09-14T11:18:01.761Z,1.25
2022-09-14T11:21:19.027Z,2.65
2022-09-14T11:23:57.969Z,1.60
2022-09-14T11:26:49.011Z,1.73
2022-09-14T11:29:23.384Z,0.70
2022-09-14T11:32:22.995Z,2.00
2022-09-14T11:34:59.999Z,1.88
2022-09-14T11:37:53.999Z,1.50
2022-09-14T11:40:29.113Z,1.42
2022-09-14T11:43:32.024Z,1.90
2022-09-14T11:46:10.898Z,1.38
2022-09-14T11:49:11.024Z,1.20
2022-09-14T11:51:51.977Z,1.77
2022-09-14T11:54:41.534Z,1.08
2022-09-14T11:57:33.015Z,1.10
2022-09-14T12:00:08.216Z,1.33
2022-09-14T12:03:06.134Z,1.27
2022-09-14T12:05:41.282Z,1.30
2022-09-14T12:08:32.020Z,1.55
2022-09-14T12:11:32.064Z,0.68
2022-09-14T12:14:34.030Z,1.08
2022-09-14T12:17:38.843Z,1.05
2022-09-14T12:20:28.030Z,1.75
2022-09-14T12:23:31.132Z,3.67
2022-09-14T12:26:19.006Z,1.52
2022-09-14T12:29:03.038Z,1.10
2022-09-14T12:32:00.019Z,2.00
2022-09-14T12:34:47.028Z,2.83
2022-09-14T12:37:35.226Z,2.10
2022-09-14T12:40:28.063Z,1.98
2022-09-14T12:43:02.110Z,3.50
2022-09-14T12:45:57.075Z,1.77
2022-09-14T12:48:54.243Z,1.92
2022-09-14T12:51:54.025Z,2.42
2022-09-14T12:54:51.090Z,3.17
2022-09-14T12:57:47.033Z,1.52
2022-09-14T13:00:28.183Z,1.40
2022-09-14T13:03:27.033Z,1.38
2022-09-14T13:06:16.046Z,1.30
2022-09-14T13:08:58.729Z,1.17
2022-09-14T13:11:52.023Z,2.40
2022-09-14T13:14:30.716Z,1.25
2022-09-14T13:17:19.005Z,1.30
2022-09-14T13:20:02.577Z,1.25
2022-09-14T13:22:50.026Z,1.10
2022-09-14T13:25:32.916Z,1.88
2022-09-14T13:28:27.035Z,1.90
2022-09-14T13:31:01.774Z,1.20
2022-09-14T13:33:49.162Z,1.38
2022-09-14T13:36:25.452Z,1.52
2022-09-14T13:39:13.048Z,1.30
2022-09-14T13:41:47.155Z,1.58
2022-09-14T13:44:40.045Z,1.35
2022-09-14T13:47:32.067Z,1.50
2022-09-14T13:50:13.038Z,1.48
2022-09-14T13:53:15.045Z,2.78
2022-09-14T13:56:02.036Z,1.40
2022-09-14T13:58:50.173Z,2.45
2022-09-14T14:01:25.621Z,1.60
2022-09-14T14:04:16.115Z,3.83
2022-09-14T14:07:00.144Z,1.70
2022-09-14T14:10:08.035Z,2.40
2022-09-14T14:12:42.931Z,1.50
2022-09-14T14:15:31.042Z,1.40
2022-09-14T14:18:23.678Z,1.38
2022-09-14T14:21:18.037Z,1.63
2022-09-14T14:24:12.024Z,1.95
2022-09-14T14:26:55.041Z,3.00
2022-09-14T14:29:29.092Z,1.40
2022-09-14T14:32:10.125Z,1.88
2022-09-14T14:34:59.045Z,3.92
2022-09-14T14:37:33.143Z,4.35
2022-09-14T14:40:21.133Z,4.25
2022-09-14T14:42:58.130Z,3.88
2022-09-14T14:45:46.130Z,2.65
2022-09-14T14:48:20.973Z,2.08
2022-09-14T14:51:09.078Z,1.85
2022-09-14T14:53:50.133Z,1.35
2022-09-14T14:56:38.032Z,1.98
2022-09-14T14:59:28.061Z,1.60
2022-09-14T15:02:02.155Z,1.73
2022-09-14T15:04:49.073Z,1.85
2022-09-14T15:07:23.116Z,1.65
2022-09-14T15:10:11.095Z,1.80
2022-09-14T15:12:45.165Z,1.45
2022-09-14T15:15:33.063Z,1.50
2022-09-14T15:18:07.467Z,1.40
2022-09-14T15:20:54.085Z,1.52
2022-09-14T15:23:28.363Z,1.50
2022-09-14T15:26:16.070Z,1.65
2022-09-14T15:28:50.735Z,1.75
2022-09-14T15:31:38.159Z,2.10
2022-09-14T15:34:12.138Z,1.75
2022-09-14T15:37:00.085Z,3.58
2022-09-14T15:39:36.155Z,1.40
2022-09-14T15:45:04.085Z,1.50
2022-09-14T15:47:58.085Z,2.58
2022-09-14T15:50:48.063Z,3.47
2022-09-14T15:56:10.097Z,1.95
2022-09-14T15:58:48.003Z,2.83
2022-09-14T16:01:36.150Z,2.75
2022-09-14T16:04:12.505Z,2.55
2022-09-14T16:06:59.191Z,3.70
2022-09-14T16:09:33.618Z,2.13
2022-09-14T16:12:21.174Z,3.95
2022-09-14T16:14:55.740Z,2.53
2022-09-14T16:17:42.214Z,2.08
2022-09-14T16:20:30.146Z,2.17
2022-09-14T16:23:04.234Z,2.90
2022-09-14T16:25:52.186Z,3.10
2022-09-14T16:28:26.218Z,2.40
2022-09-14T16:31:25.138Z,1.73
2022-09-14T16:34:00.396Z,2.40
2022-09-14T16:36:51.124Z,2.20
2022-09-14T16:39:26.333Z,1.88
2022-09-14T16:42:14.199Z,1.50
2022-09-14T16:44:48.085Z,1.48
2022-09-14T16:47:36.122Z,1.55
2022-09-14T16:50:10.358Z,2.05
2022-09-14T16:52:58.123Z,1.65
2022-09-14T16:55:52.119Z,1.60
2022-09-14T16:58:40.099Z,1.70
2022-09-14T17:01:35.371Z,1.40
2022-09-14T17:04:31.179Z,1.85
2022-09-14T17:07:22.228Z,2.03
2022-09-14T17:09:56.329Z,1.40
2022-09-14T17:12:43.241Z,1.65
2022-09-14T17:15:17.561Z,2.38
2022-09-14T17:18:04.254Z,1.92
2022-09-14T17:20:38.436Z,2.05
2022-09-14T17:23:25.180Z,1.73
2022-09-14T17:26:06.151Z,2.60
2022-09-14T17:28:56.109Z,2.13
2022-09-14T17:31:32.494Z,2.58
2022-09-14T17:34:22.156Z,2.42
2022-09-14T17:39:43.271Z,2.58
2022-09-14T17:42:25.280Z,2.05
2022-09-14T17:45:13.259Z,1.90
2022-09-14T17:47:47.419Z,2.00
2022-09-14T17:50:34.421Z,1.65
2022-09-14T17:53:08.444Z,1.55
2022-09-14T17:55:55.353Z,1.67
2022-09-14T17:58:29.522Z,2.30
2022-09-14T18:01:27.587Z,3.13
2022-09-14T18:04:12.559Z,3.20
2022-09-14T18:06:59.449Z,4.00
2022-09-14T18:09:34.200Z,3.75
2022-09-14T18:12:22.353Z,3.33
2022-09-14T18:14:57.535Z,4.22
2022-09-14T18:17:45.608Z,4.28
2022-09-14T18:20:20.381Z,4.82
2022-09-14T18:23:14.359Z,3.78
2022-09-14T18:26:09.372Z,4.43
2022-09-14T18:28:57.313Z,2.28
2022-09-14T18:31:32.731Z,2.78
2022-09-14T18:34:20.283Z,2.25
2022-09-14T18:36:54.475Z,1.95
2022-09-14T18:39:42.300Z,2.92
2022-09-14T18:42:16.419Z,2.45
2022-09-14T18:45:04.747Z,2.45
2022-09-14T18:47:46.550Z,2.88
2022-09-14T18:50:33.459Z,2.47
2022-09-14T18:53:14.366Z,3.22
2022-09-14T18:56:02.234Z,3.38
2022-09-14T18:58:46.571Z,3.28
2022-09-14T19:01:34.452Z,3.95
2022-09-14T19:04:10.670Z,3.33
2022-09-14T19:06:57.457Z,4.15
2022-09-14T19:09:38.176Z,4.45
2022-09-14T19:12:32.340Z,4.53
2022-09-14T19:15:20.305Z,4.68
2022-09-14T19:17:54.458Z,4.22
2022-09-14T19:21:05.414Z,3.85
2022-09-14T19:23:40.199Z,3.53
2022-09-14T19:26:28.121Z,3.50
2022-09-14T19:29:09.269Z,3.20
2022-09-14T19:31:58.139Z,3.45
2022-09-14T19:34:33.213Z,3.55
2022-09-14T19:37:20.164Z,2.85
2022-09-14T19:39:54.215Z,3.05
2022-09-14T19:42:43.112Z,2.47
2022-09-14T19:45:24.187Z,4.32
2022-09-14T19:48:04.141Z,3.10
2022-09-14T19:50:46.319Z,3.78
2022-09-14T19:53:27.124Z,3.78
2022-09-14T19:56:10.280Z,3.05
2022-09-14T19:58:53.111Z,2.80
2022-09-14T20:01:41.221Z,2.60
2022-09-14T20:04:15.812Z,3.33
2022-09-14T20:07:03.161Z,2.80
2022-09-14T20:09:37.230Z,3.63
2022-09-14T20:12:25.247Z,3.67
2022-09-14T20:15:20.112Z,3.00
2022-09-14T20:18:07.251Z,3.90
2022-09-14T20:20:44.191Z,4.03
2022-09-14T20:23:32.131Z,3.95
2022-09-14T20:26:09.245Z,3.72
2022-09-14T20:28:57.159Z,2.80
2022-09-14T20:31:31.228Z,3.00
2022-09-14T20:34:19.133Z,2.50
2022-09-14T20:36:54.277Z,3.00
2022-09-14T20:39:45.190Z,3.20
2022-09-14T20:42:26.403Z,3.00
2022-09-14T20:45:22.143Z,3.92
2022-09-14T20:48:10.107Z,3.72
2022-09-14T20:50:44.213Z,4.20
2022-09-14T20:53:32.140Z,3.47
2022-09-14T20:56:10.217Z,5.60
2022-09-14T20:59:01.166Z,3.63
2022-09-14T21:01:37.275Z,3.05
2022-09-14T21:04:26.146Z,3.15
2022-09-14T21:07:01.267Z,3.38
2022-09-14T21:09:49.160Z,3.90
2022-09-14T21:12:30.152Z,3.03
2022-09-14T21:15:25.241Z,3.05
2022-09-14T21:18:12.155Z,3.38
2022-09-14T21:20:53.167Z,3.33
2022-09-14T21:23:47.190Z,3.22
2022-09-14T21:26:39.341Z,4.22
2022-09-14T21:29:27.164Z,4.72
2022-09-14T21:32:21.161Z,3.60
2022-09-14T21:37:42.214Z,4.47
2022-09-14T21:40:25.277Z,3.38
2022-09-14T21:43:05.157Z,2.58
2022-09-14T21:45:39.191Z,3.63
2022-09-14T21:48:27.153Z,3.25
2022-09-14T21:51:21.209Z,3.22
2022-09-14T21:54:13.138Z,2.90
2022-09-14T21:56:48.402Z,3.72
2022-09-14T21:59:36.144Z,3.10
2022-09-14T22:02:10.756Z,3.10
2022-09-14T22:04:58.153Z,3.13
2022-09-14T22:07:32.227Z,3.17
2022-09-14T22:10:19.170Z,2.50
2022-09-14T22:13:00.541Z,2.38
2022-09-14T22:15:41.211Z,2.58
2022-09-14T22:18:29.161Z,2.50
2022-09-14T22:21:03.675Z,2.60
2022-09-14T22:23:51.204Z,3.00
2022-09-14T22:26:25.944Z,2.85
2022-09-14T22:29:14.159Z,3.10
2022-09-14T22:31:55.156Z,2.50
2022-09-14T22:34:46.502Z,2.65
2022-09-14T22:37:42.159Z,2.17
2022-09-14T22:40:29.226Z,2.13
2022-09-14T22:43:03.243Z,2.60
2022-09-14T22:45:50.243Z,2.17
2022-09-14T22:48:31.171Z,2.03
2022-09-14T22:51:23.171Z,2.10
2022-09-14T22:53:57.311Z,2.53
2022-09-14T22:56:46.181Z,2.10
2022-09-14T22:59:34.200Z,2.25
2022-09-14T23:02:14.183Z,2.60
2022-09-14T23:04:56.178Z,2.47
2022-09-14T23:07:38.204Z,2.42
2022-09-14T23:10:26.178Z,2.28
2022-09-14T23:13:06.179Z,3.00
2022-09-14T23:15:47.226Z,2.45
2022-09-14T23:18:27.182Z,2.55
2022-09-14T23:21:10.264Z,2.45
2022-09-14T23:23:50.155Z,2.53
2022-09-14T23:26:31.261Z,2.60
2022-09-14T23:29:13.157Z,2.35
2022-09-14T23:31:54.303Z,2.15
2022-09-14T23:34:34.183Z,2.35
2022-09-14T23:37:22.167Z,1.98
2022-09-14T23:40:03.274Z,2.20
2022-09-14T23:42:44.228Z,1.92
2022-09-14T23:45:25.180Z,2.00
2022-09-14T23:48:13.209Z,2.15
2022-09-14T23:50:53.197Z,1.65
2022-09-14T23:53:41.203Z,2.47
2022-09-14T23:56:22.196Z,2.28
2022-09-14T23:59:03.246Z,1.80
